Time;durP1;ratioP1;P1;durP2;ratioP2;P2;SDS_P1;SDS_P2;PMS_P1;PMS_P2;Temp;Humidity;BMP_temperature;BMP_pressure;BME280_temperature;BME280_humidity;BME280_pressure;Samples;Min_cycle;Max_cycle;Signal;HPM_P1;HPM_P2
2023/09/21 00:01:17;;;;;;;2.03;1.30;;;;;;;;;;5127074;27;20200;-44
2023/09/21 00:03:47;;;;;;;1.90;1.57;;;;;;;;;;5116875;27;20207;-43
2023/09/21 00:06:17;;;;;;;1.40;1.30;;;;;;;;;;5130790;27;20251;-41
2023/09/21 00:08:47;;;;;;;1.40;1.30;;;;;;;;;;5116706;27;20208;-42
2023/09/21 00:11:16;;;;;;;1.70;1.23;;;;;;;;;;5104513;27;20215;-40
2023/09/21 00:13:43;;;;;;;1.30;1.10;;;;;;;;;;5110764;27;20223;-42
2023/09/21 00:16:12;;;;;;;2.00;1.20;;;;;;;;;;5114655;27;20299;-40
2023/09/21 00:18:39;;;;;;;1.30;1.20;;;;;;;;;;5118647;27;20203;-46
2023/09/21 00:21:07;;;;;;;1.40;1.30;;;;;;;;;;5116639;27;20311;-42
2023/09/21 00:23:34;;;;;;;1.77;1.50;;;;;;;;;;5122845;27;20205;-44
2023/09/21 00:26:01;;;;;;;1.43;1.30;;;;;;;;;;5122122;27;20207;-37
2023/09/21 00:28:30;;;;;;;3.20;1.37;;;;;;;;;;5124893;27;20235;-42
2023/09/21 00:30:58;;;;;;;1.80;1.40;;;;;;;;;;5119194;27;20230;-43
2023/09/21 00:33:26;;;;;;;1.73;1.03;;;;;;;;;;5121824;27;20201;-41
2023/09/21 00:35:53;;;;;;;2.13;1.37;;;;;;;;;;5120936;27;20212;-45
2023/09/21 00:38:24;;;;;;;3.90;1.37;;;;;;;;;;5116835;27;20204;-40
2023/09/21 00:40:51;;;;;;;1.10;1.10;;;;;;;;;;5120786;27;20233;-42
2023/09/21 00:43:21;;;;;;;3.53;1.60;;;;;;;;;;5118271;27;20214;-42
2023/09/21 00:45:51;;;;;;;1.80;1.70;;;;;;;;;;5110031;27;20272;-43
2023/09/21 00:48:23;;;;;;;2.40;1.53;;;;;;;;;;5118544;27;20288;-43
2023/09/21 00:50:53;;;;;;;3.13;1.53;;;;;;;;;;5118267;27;20243;-38
2023/09/21 00:53:20;;;;;;;1.80;1.53;;;;;;;;;;5128680;27;20206;-44
2023/09/21 00:55:49;;;;;;;2.77;1.57;;;;;;;;;;5124869;27;20608;-40
2023/09/21 00:58:18;;;;;;;2.00;1.70;;;;;;;;;;5128967;27;20203;-42
2023/09/21 01:00:46;;;;;;;1.73;1.50;;;;;;;;;;5122830;27;20287;-42
2023/09/21 01:03:15;;;;;;;1.47;1.37;;;;;;;;;;5108996;27;20260;-41
2023/09/21 01:05:44;;;;;;;1.67;1.57;;;;;;;;;;5124070;27;20213;-44
2023/09/21 01:08:13;;;;;;;4.77;1.10;;;;;;;;;;5111294;27;20204;-45
2023/09/21 01:10:42;;;;;;;1.10;1.10;;;;;;;;;;5111253;27;20230;-43
2023/09/21 01:13:11;;;;;;;1.37;1.27;;;;;;;;;;5130193;27;20789;-43
2023/09/21 01:15:38;;;;;;;2.03;1.60;;;;;;;;;;5129089;27;20621;-44
2023/09/21 01:18:09;;;;;;;2.57;1.40;;;;;;;;;;5123276;27;20215;-43
2023/09/21 01:20:38;;;;;;;1.30;1.20;;;;;;;;;;5117674;27;20235;-39
2023/09/21 01:23:11;;;;;;;1.50;1.40;;;;;;;;;;5120003;27;20211;-41
2023/09/21 01:25:40;;;;;;;2.93;1.77;;;;;;;;;;5128344;27;20206;-43
2023/09/21 01:28:09;;;;;;;2.30;1.43;;;;;;;;;;5124001;27;20219;-44
2023/09/21 01:30:36;;;;;;;1.50;1.40;;;;;;;;;;5114206;27;20232;-45
2023/09/21 01:33:08;;;;;;;2.33;1.40;;;;;;;;;;5122070;27;20230;-41
2023/09/21 01:35:36;;;;;;;1.37;1.27;;;;;;;;;;5119723;27;20204;-41
2023/09/21 01:38:04;;;;;;;4.40;1.30;;;;;;;;;;5132392;27;20280;-40
2023/09/21 01:40:31;;;;;;;3.00;1.30;;;;;;;;;;5108826;27;20224;-42
2023/09/21 01:42:59;;;;;;;2.20;1.60;;;;;;;;;;5128736;27;20200;-42
2023/09/21 01:45:26;;;;;;;1.33;1.23;;;;;;;;;;5127109;27;20195;-45
2023/09/21 01:47:54;;;;;;;2.10;1.43;;;;;;;;;;5124534;27;20199;-45
2023/09/21 01:50:21;;;;;;;2.07;1.57;;;;;;;;;;5122507;27;20318;-43
2023/09/21 01:52:50;;;;;;;1.70;1.33;;;;;;;;;;5121123;27;20234;-41
2023/09/21 01:55:19;;;;;;;1.50;1.40;;;;;;;;;;5117046;27;20204;-45
2023/09/21 01:57:46;;;;;;;1.30;1.20;;;;;;;;;;5120516;27;20206;-43
2023/09/21 02:00:25;;;;;;;1.50;1.23;;;;;;;;;;5121917;27;20236;-42
2023/09/21 02:02:52;;;;;;;1.70;1.30;;;;;;;;;;5110911;27;20207;-43
2023/09/21 02:05:19;;;;;;;5.20;1.20;;;;;;;;;;5119623;27;20200;-41
2023/09/21 02:07:47;;;;;;;1.50;1.40;;;;;;;;;;5115421;27;20199;-42
2023/09/21 02:10:15;;;;;;;2.87;1.47;;;;;;;;;;5106241;27;20231;-45
2023/09/21 02:12:52;;;;;;;2.60;1.40;;;;;;;;;;5113166;27;20240;-42
2023/09/21 02:15:20;;;;;;;1.50;1.40;;;;;;;;;;5121820;27;20199;-44
2023/09/21 02:17:48;;;;;;;3.20;1.40;;;;;;;;;;5124579;27;20544;-45
2023/09/21 02:20:16;;;;;;;2.27;1.33;;;;;;;;;;5117012;27;20224;-41
2023/09/21 02:22:46;;;;;;;4.13;1.70;;;;;;;;;;5112231;27;20220;-41
2023/09/21 02:25:13;;;;;;;2.10;1.80;;;;;;;;;;5114480;27;20202;-40
2023/09/21 02:27:41;;;;;;;1.43;1.33;;;;;;;;;;5123663;27;20215;-43
2023/09/21 02:30:11;;;;;;;1.27;1.17;;;;;;;;;;5122302;27;20251;-42
2023/09/21 02:32:40;;;;;;;1.60;1.50;;;;;;;;;;5121214;27;20220;-42
2023/09/21 02:35:08;;;;;;;3.13;1.50;;;;;;;;;;5121687;27;20196;-42
2023/09/21 02:37:35;;;;;;;1.50;1.40;;;;;;;;;;5115138;27;20208;-41
2023/09/21 02:40:06;;;;;;;2.37;1.50;;;;;;;;;;5121085;27;20734;-44
2023/09/21 02:42:33;;;;;;;2.13;1.80;;;;;;;;;;5122004;27;20291;-42
2023/09/21 02:45:02;;;;;;;1.50;1.40;;;;;;;;;;5120839;27;20215;-38
2023/09/21 02:47:30;;;;;;;1.43;1.33;;;;;;;;;;5132413;27;20203;-38
2023/09/21 02:49:59;;;;;;;1.50;1.40;;;;;;;;;;5118154;27;20257;-42
2023/09/21 02:52:26;;;;;;;2.33;1.33;;;;;;;;;;5125945;27;20219;-42
2023/09/21 02:54:54;;;;;;;2.23;1.50;;;;;;;;;;5113389;27;20199;-44
2023/09/21 02:57:22;;;;;;;1.53;1.30;;;;;;;;;;5122106;27;20207;-39
2023/09/21 02:59:49;;;;;;;1.30;1.20;;;;;;;;;;5123696;27;20230;-41
2023/09/21 03:02:16;;;;;;;1.83;1.73;;;;;;;;;;5114856;27;20208;-42
2023/09/21 03:04:45;;;;;;;3.33;1.63;;;;;;;;;;5117795;27;20208;-42
2023/09/21 03:07:17;;;;;;;1.60;1.50;;;;;;;;;;5130463;27;20730;-42
2023/09/21 03:09:44;;;;;;;2.27;1.70;;;;;;;;;;5126422;27;20218;-42
2023/09/21 03:12:11;;;;;;;1.53;1.43;;;;;;;;;;5118061;27;20288;-41
2023/09/21 03:14:38;;;;;;;1.03;1.00;;;;;;;;;;5119633;27;20206;-43
2023/09/21 03:17:07;;;;;;;2.23;1.50;;;;;;;;;;5121322;27;20203;-39
2023/09/21 03:19:35;;;;;;;1.50;1.40;;;;;;;;;;5117151;27;20216;-42
2023/09/21 03:22:04;;;;;;;1.60;1.50;;;;;;;;;;5117455;27;20192;-42
2023/09/21 03:24:33;;;;;;;1.93;1.37;;;;;;;;;;5121086;27;20207;-43
2023/09/21 03:27:00;;;;;;;1.97;1.20;;;;;;;;;;5115242;27;20198;-41
2023/09/21 03:29:27;;;;;;;1.70;1.50;;;;;;;;;;5127019;27;20595;-40
2023/09/21 03:31:55;;;;;;;1.40;1.20;;;;;;;;;;5111298;27;20315;-41
2023/09/21 03:34:22;;;;;;;1.40;1.30;;;;;;;;;;5123448;27;20246;-43
2023/09/21 03:36:50;;;;;;;1.30;1.20;;;;;;;;;;5117214;27;20207;-39
2023/09/21 03:39:19;;;;;;;1.53;1.37;;;;;;;;;;5120672;27;20223;-39
2023/09/21 03:41:48;;;;;;;1.73;1.03;;;;;;;;;;5108559;27;20241;-45
2023/09/21 03:44:15;;;;;;;1.30;1.23;;;;;;;;;;5119960;27;20231;-44
2023/09/21 03:46:43;;;;;;;4.10;1.30;;;;;;;;;;5112242;27;20199;-42
2023/09/21 03:49:10;;;;;;;2.80;1.57;;;;;;;;;;5109414;27;20235;-44
2023/09/21 03:51:37;;;;;;;1.30;1.20;;;;;;;;;;5129075;27;20234;-42
2023/09/21 03:54:05;;;;;;;2.10;1.60;;;;;;;;;;5122410;27;20245;-43
2023/09/21 03:56:35;;;;;;;1.40;1.30;;;;;;;;;;5112913;27;20204;-45
2023/09/21 03:59:06;;;;;;;1.67;1.30;;;;;;;;;;5112933;27;20588;-45
2023/09/21 04:01:34;;;;;;;1.63;1.50;;;;;;;;;;5116781;27;20196;-43
2023/09/21 04:04:07;;;;;;;3.83;1.63;;;;;;;;;;5117814;27;20203;-43
2023/09/21 04:06:35;;;;;;;1.80;1.37;;;;;;;;;;5115302;27;20253;-45
2023/09/21 04:09:06;;;;;;;1.50;1.40;;;;;;;;;;5119040;27;20199;-41
2023/09/21 04:11:34;;;;;;;1.40;1.23;;;;;;;;;;5106138;27;20192;-43
2023/09/21 04:14:01;;;;;;;2.30;1.60;;;;;;;;;;5119458;27;20287;-45
2023/09/21 04:16:34;;;;;;;2.23;1.20;;;;;;;;;;5117471;27;20268;-45
2023/09/21 04:19:10;;;;;;;2.57;1.77;;;;;;;;;;5121995;27;20579;-42
2023/09/21 04:21:37;;;;;;;1.37;1.27;;;;;;;;;;5130209;27;20222;-40
2023/09/21 04:24:05;;;;;;;1.53;1.43;;;;;;;;;;5121509;27;20266;-42
2023/09/21 04:26:32;;;;;;;1.73;1.40;;;;;;;;;;5119457;27;20227;-40
2023/09/21 04:28:59;;;;;;;2.53;1.20;;;;;;;;;;5113978;27;20200;-43
2023/09/21 04:31:26;;;;;;;2.60;1.40;;;;;;;;;;5118119;27;20200;-44
2023/09/21 04:33:54;;;;;;;1.27;1.17;;;;;;;;;;5111368;27;20306;-39
2023/09/21 04:36:24;;;;;;;2.83;1.60;;;;;;;;;;5113901;27;20575;-44
2023/09/21 04:38:51;;;;;;;1.20;1.13;;;;;;;;;;5133317;27;20206;-41
2023/09/21 04:41:20;;;;;;;1.37;1.27;;;;;;;;;;5114802;27;20222;-43
2023/09/21 04:43:47;;;;;;;1.93;1.27;;;;;;;;;;5118595;27;20204;-43
2023/09/21 04:46:14;;;;;;;1.40;1.30;;;;;;;;;;5125608;27;20641;-41
2023/09/21 04:48:41;;;;;;;1.70;1.13;;;;;;;;;;5120173;27;20214;-43
2023/09/21 04:51:12;;;;;;;2.70;1.30;;;;;;;;;;5121050;27;20224;-40
2023/09/21 04:53:39;;;;;;;1.37;1.27;;;;;;;;;;5125587;27;20285;-40
2023/09/21 04:56:06;;;;;;;2.80;1.33;;;;;;;;;;5118814;27;20203;-42
2023/09/21 04:58:34;;;;;;;1.30;1.20;;;;;;;;;;5121487;27;20203;-40
2023/09/21 05:01:09;;;;;;;1.90;1.50;;;;;;;;;;5116952;27;20407;-38
2023/09/21 05:03:36;;;;;;;1.97;1.53;;;;;;;;;;5114951;27;20200;-40
2023/09/21 05:06:03;;;;;;;2.30;1.80;;;;;;;;;;5110930;27;20287;-42
2023/09/21 05:08:35;;;;;;;2.27;1.30;;;;;;;;;;5118341;27;20200;-45
2023/09/21 05:11:03;;;;;;;1.37;1.27;;;;;;;;;;5111535;27;20280;-42
2023/09/21 05:13:29;;;;;;;2.60;1.17;;;;;;;;;;5112336;27;20215;-44
2023/09/21 05:15:56;;;;;;;1.37;1.10;;;;;;;;;;5114104;27;20263;-39
2023/09/21 05:18:23;;;;;;;3.30;1.30;;;;;;;;;;5111066;27;20210;-42
2023/09/21 05:20:51;;;;;;;1.73;1.27;;;;;;;;;;5120643;27;20226;-43
2023/09/21 05:23:18;;;;;;;2.17;1.70;;;;;;;;;;5120571;27;20196;-45
2023/09/21 05:25:47;;;;;;;1.63;1.50;;;;;;;;;;5116889;27;20206;-44
2023/09/21 05:28:16;;;;;;;1.37;1.27;;;;;;;;;;5124617;27;20203;-43
2023/09/21 05:30:43;;;;;;;1.37;1.20;;;;;;;;;;5125847;27;20223;-42
2023/09/21 05:33:10;;;;;;;1.30;1.20;;;;;;;;;;5110993;27;20219;-43
2023/09/21 05:35:37;;;;;;;2.20;1.60;;;;;;;;;;5115332;27;20203;-42
2023/09/21 05:38:06;;;;;;;3.33;1.70;;;;;;;;;;5124135;27;20211;-41
2023/09/21 05:40:35;;;;;;;1.60;1.20;;;;;;;;;;5114110;27;20222;-41
2023/09/21 05:43:04;;;;;;;3.90;1.70;;;;;;;;;;5124548;27;20197;-42
2023/09/21 05:45:31;;;;;;;3.27;1.33;;;;;;;;;;5113296;27;20216;-41
2023/09/21 05:47:58;;;;;;;1.40;1.30;;;;;;;;;;5118355;27;20206;-43
2023/09/21 05:50:25;;;;;;;1.67;1.57;;;;;;;;;;5118893;27;20235;-41
2023/09/21 05:52:56;;;;;;;1.60;1.37;;;;;;;;;;5119430;27;20218;-44
2023/09/21 05:55:23;;;;;;;1.47;1.37;;;;;;;;;;5110514;27;20231;-42
2023/09/21 05:57:50;;;;;;;3.37;1.80;;;;;;;;;;5132302;27;20211;-43
2023/09/21 06:00:20;;;;;;;1.53;1.43;;;;;;;;;;5124915;27;20224;-37
2023/09/21 06:02:47;;;;;;;3.40;1.60;;;;;;;;;;5130601;27;20198;-43
2023/09/21 06:05:15;;;;;;;1.70;1.50;;;;;;;;;;5129671;27;20229;-45
2023/09/21 06:07:42;;;;;;;1.77;1.67;;;;;;;;;;5123385;27;20298;-43
2023/09/21 06:10:12;;;;;;;1.57;1.47;;;;;;;;;;5125189;27;20227;-43
2023/09/21 06:12:39;;;;;;;1.50;1.40;;;;;;;;;;5122549;27;20215;-45
2023/09/21 06:15:07;;;;;;;3.03;1.40;;;;;;;;;;5135605;27;20284;-43
2023/09/21 06:17:35;;;;;;;3.83;2.50;;;;;;;;;;5123163;27;20200;-40
2023/09/21 06:20:03;;;;;;;3.70;1.57;;;;;;;;;;5125850;27;20219;-42
2023/09/21 06:22:31;;;;;;;2.47;1.90;;;;;;;;;;5131582;27;20211;-42
2023/09/21 06:24:59;;;;;;;2.03;1.80;;;;;;;;;;5125481;27;20200;-42
2023/09/21 06:27:26;;;;;;;1.37;1.27;;;;;;;;;;5121166;27;20204;-43
2023/09/21 06:29:54;;;;;;;2.00;1.70;;;;;;;;;;5123315;27;20230;-42
2023/09/21 06:32:23;;;;;;;4.27;2.10;;;;;;;;;;5115946;27;20219;-37
2023/09/21 06:34:52;;;;;;;1.90;1.47;;;;;;;;;;5119331;27;20235;-44
2023/09/21 06:37:19;;;;;;;2.97;1.83;;;;;;;;;;5114617;27;20203;-45
2023/09/21 06:39:46;;;;;;;2.80;1.83;;;;;;;;;;5119673;27;20220;-42
2023/09/21 06:42:15;;;;;;;3.50;1.63;;;;;;;;;;5121071;27;20203;-46
2023/09/21 06:44:42;;;;;;;3.57;1.90;;;;;;;;;;5128944;27;20211;-43
2023/09/21 06:47:10;;;;;;;1.70;1.60;;;;;;;;;;5130950;27;20291;-42
2023/09/21 06:49:37;;;;;;;5.23;2.17;;;;;;;;;;5128599;27;20234;-44
2023/09/21 06:52:06;;;;;;;3.30;1.87;;;;;;;;;;5130542;27;20200;-43
2023/09/21 06:54:33;;;;;;;2.43;1.90;;;;;;;;;;5121587;27;20223;-38
2023/09/21 06:57:04;;;;;;;3.23;1.83;;;;;;;;;;5122192;27;20206;-43
2023/09/21 06:59:34;;;;;;;1.87;1.67;;;;;;;;;;5122092;27;20226;-39
2023/09/21 07:02:01;;;;;;;2.03;1.57;;;;;;;;;;5113210;27;20204;-43
2023/09/21 07:04:33;;;;;;;3.20;1.70;;;;;;;;;;5122408;27;20203;-41
2023/09/21 07:07:02;;;;;;;2.47;1.97;;;;;;;;;;5121021;27;20282;-44
2023/09/21 07:09:31;;;;;;;2.50;2.00;;;;;;;;;;5119515;27;20323;-44
2023/09/21 07:11:58;;;;;;;2.90;2.03;;;;;;;;;;5120518;27;20295;-41
2023/09/21 07:14:26;;;;;;;2.40;1.90;;;;;;;;;;5121959;27;20408;-44
2023/09/21 07:16:54;;;;;;;2.97;2.00;;;;;;;;;;5123089;27;20280;-41
2023/09/21 07:19:22;;;;;;;2.10;1.87;;;;;;;;;;5124913;27;20284;-42
2023/09/21 07:21:49;;;;;;;2.17;1.97;;;;;;;;;;5121182;27;20208;-41
2023/09/21 07:24:16;;;;;;;2.23;2.00;;;;;;;;;;5113632;27;20211;-43
2023/09/21 07:26:45;;;;;;;1.83;1.73;;;;;;;;;;5114110;27;20567;-42
2023/09/21 07:29:13;;;;;;;2.67;2.00;;;;;;;;;;5122410;27;20219;-43
2023/09/21 07:31:40;;;;;;;3.60;2.20;;;;;;;;;;5131044;27;20195;-45
2023/09/21 07:34:08;;;;;;;4.10;2.27;;;;;;;;;;5118235;27;20570;-45
2023/09/21 07:36:35;;;;;;;3.40;2.47;;;;;;;;;;5123246;27;20852;-44
2023/09/21 07:39:03;;;;;;;5.60;3.93;;;;;;;;;;5133898;27;20270;-44
2023/09/21 07:41:30;;;;;;;2.67;2.27;;;;;;;;;;5123649;27;20236;-44
2023/09/21 07:43:58;;;;;;;4.53;2.07;;;;;;;;;;5114585;27;20206;-39
2023/09/21 07:46:26;;;;;;;3.43;1.90;;;;;;;;;;5123461;27;20215;-41
2023/09/21 07:48:53;;;;;;;3.00;1.70;;;;;;;;;;5128041;27;20215;-43
2023/09/21 07:51:21;;;;;;;3.70;1.77;;;;;;;;;;5121128;27;20218;-45
2023/09/21 07:53:48;;;;;;;3.43;1.90;;;;;;;;;;5125692;27;20215;-41
2023/09/21 07:56:16;;;;;;;2.10;1.90;;;;;;;;;;5117064;27;20204;-38
2023/09/21 07:58:44;;;;;;;4.13;2.00;;;;;;;;;;5125655;27;20230;-42
2023/09/21 08:01:12;;;;;;;2.73;2.07;;;;;;;;;;5125331;27;20223;-44
2023/09/21 08:03:39;;;;;;;2.50;2.13;;;;;;;;;;5133430;27;20287;-40
2023/09/21 08:06:07;;;;;;;2.33;2.13;;;;;;;;;;5123736;27;20195;-39
2023/09/21 08:08:34;;;;;;;2.83;1.90;;;;;;;;;;5133167;27;20216;-39
2023/09/21 08:11:02;;;;;;;5.07;2.37;;;;;;;;;;5124677;27;20226;-45
2023/09/21 08:13:30;;;;;;;2.33;2.13;;;;;;;;;;5127124;27;20268;-42
2023/09/21 08:15:59;;;;;;;2.87;2.47;;;;;;;;;;5119031;27;20286;-40
2023/09/21 08:18:28;;;;;;;2.90;1.97;;;;;;;;;;5118819;27;20200;-41
2023/09/21 08:20:55;;;;;;;2.30;2.10;;;;;;;;;;5121312;27;20690;-41
2023/09/21 08:23:22;;;;;;;2.13;1.77;;;;;;;;;;5130317;27;20200;-40
2023/09/21 08:25:49;;;;;;;3.53;2.17;;;;;;;;;;5121964;27;20204;-43
2023/09/21 08:28:17;;;;;;;4.10;2.57;;;;;;;;;;5120873;27;20212;-38
2023/09/21 08:30:44;;;;;;;2.37;2.00;;;;;;;;;;5116515;27;20219;-42
2023/09/21 08:33:11;;;;;;;6.53;2.30;;;;;;;;;;5121185;27;20236;-43
2023/09/21 08:35:43;;;;;;;1.83;1.73;;;;;;;;;;5119338;27;21192;-40
2023/09/21 08:38:10;;;;;;;2.23;2.03;;;;;;;;;;5118112;27;20279;-41
2023/09/21 08:40:38;;;;;;;2.67;2.23;;;;;;;;;;5111913;27;20232;-45
2023/09/21 08:43:05;;;;;;;2.40;2.20;;;;;;;;;;5120739;27;20222;-42
2023/09/21 08:45:33;;;;;;;1.87;1.53;;;;;;;;;;5131450;27;20202;-40
2023/09/21 08:48:01;;;;;;;2.10;1.90;;;;;;;;;;5126421;27;20237;-43
2023/09/21 08:50:29;;;;;;;3.60;1.80;;;;;;;;;;5120121;27;20229;-44
2023/09/21 08:52:58;;;;;;;1.80;1.70;;;;;;;;;;5129004;27;20559;-41
2023/09/21 08:55:26;;;;;;;2.13;1.93;;;;;;;;;;5123971;27;20885;-45
2023/09/21 08:57:54;;;;;;;3.63;2.30;;;;;;;;;;5124281;27;20209;-45
2023/09/21 09:00:22;;;;;;;2.53;2.00;;;;;;;;;;5115984;27;20225;-42
2023/09/21 09:02:50;;;;;;;4.97;1.90;;;;;;;;;;5115264;27;20201;-42
2023/09/21 09:05:20;;;;;;;2.97;1.90;;;;;;;;;;5123376;27;20195;-45
2023/09/21 09:07:51;;;;;;;2.27;1.83;;;;;;;;;;5118946;27;20205;-41
2023/09/21 09:10:19;;;;;;;2.20;2.00;;;;;;;;;;5108825;27;20252;-42
2023/09/21 09:12:49;;;;;;;3.50;2.40;;;;;;;;;;5114597;27;20198;-43
2023/09/21 09:15:17;;;;;;;2.53;1.90;;;;;;;;;;5112192;27;20269;-41
2023/09/21 09:17:44;;;;;;;2.53;2.00;;;;;;;;;;5119949;27;20198;-44
2023/09/21 09:20:16;;;;;;;5.13;1.90;;;;;;;;;;5127639;27;20229;-40
2023/09/21 09:22:44;;;;;;;2.00;1.73;;;;;;;;;;5120834;27;20215;-42
2023/09/21 09:25:11;;;;;;;1.63;1.53;;;;;;;;;;5125057;27;20294;-46
2023/09/21 09:27:41;;;;;;;2.30;1.70;;;;;;;;;;5120289;27;20238;-42
2023/09/21 09:30:11;;;;;;;2.57;1.87;;;;;;;;;;5132212;27;20247;-41
2023/09/21 09:32:41;;;;;;;1.50;1.40;;;;;;;;;;5118475;27;20200;-41
2023/09/21 09:35:11;;;;;;;3.33;1.80;;;;;;;;;;5124401;27;20219;-45
2023/09/21 09:37:39;;;;;;;4.85;1.70;;;;;;;;;;5132288;27;20286;-42
2023/09/21 09:40:09;;;;;;;3.60;1.40;;;;;;;;;;5112667;27;20279;-39
2023/09/21 09:42:37;;;;;;;3.37;1.57;;;;;;;;;;5130646;27;20210;-41
2023/09/21 09:45:06;;;;;;;3.80;1.97;;;;;;;;;;5135796;27;20222;-41
2023/09/21 09:47:36;;;;;;;1.87;1.43;;;;;;;;;;5125691;27;20207;-45
2023/09/21 09:50:04;;;;;;;2.07;1.53;;;;;;;;;;5116188;27;20235;-44
2023/09/21 09:52:33;;;;;;;1.33;1.23;;;;;;;;;;5133581;27;20206;-45
2023/09/21 09:55:00;;;;;;;1.90;1.50;;;;;;;;;;5120321;27;20322;-39
2023/09/21 09:57:28;;;;;;;1.57;1.47;;;;;;;;;;5117298;27;20211;-43
2023/09/21 09:59:56;;;;;;;1.77;1.67;;;;;;;;;;5119830;27;20222;-45
2023/09/21 10:02:27;;;;;;;2.27;1.60;;;;;;;;;;5126947;27;20237;-42
2023/09/21 10:04:54;;;;;;;3.77;1.70;;;;;;;;;;5115411;27;20253;-43
2023/09/21 10:07:21;;;;;;;2.20;1.70;;;;;;;;;;5134511;27;20294;-39
2023/09/21 10:09:48;;;;;;;2.63;1.57;;;;;;;;;;5110868;27;20229;-41
2023/09/21 10:12:15;;;;;;;3.07;1.67;;;;;;;;;;5118783;27;20204;-45
2023/09/21 10:14:48;;;;;;;1.27;1.17;;;;;;;;;;5125068;27;20220;-42
2023/09/21 10:17:27;;;;;;;2.27;1.50;;;;;;;;;;5126847;27;20203;-41
2023/09/21 10:20:14;;;;;;;2.73;1.67;;;;;;;;;;5119143;27;20253;-39
2023/09/21 10:22:42;;;;;;;1.77;1.10;;;;;;;;;;5129564;27;20207;-44
2023/09/21 10:25:10;;;;;;;3.97;1.77;;;;;;;;;;5114647;27;20199;-43
2023/09/21 10:27:39;;;;;;;6.33;1.63;;;;;;;;;;5129900;27;20199;-42
2023/09/21 10:30:09;;;;;;;1.60;1.50;;;;;;;;;;5120257;27;20282;-43
2023/09/21 10:32:43;;;;;;;1.73;1.60;;;;;;;;;;5126461;27;20199;-43
2023/09/21 10:35:15;;;;;;;2.37;1.53;;;;;;;;;;5127097;27;20219;-45
2023/09/21 10:37:42;;;;;;;1.73;1.60;;;;;;;;;;5124176;27;20280;-41
2023/09/21 10:40:10;;;;;;;2.97;1.70;;;;;;;;;;5127598;27;20225;-39
2023/09/21 10:42:37;;;;;;;1.30;1.20;;;;;;;;;;5122253;27;20207;-41
2023/09/21 10:45:07;;;;;;;1.60;1.50;;;;;;;;;;5135037;27;20199;-43
2023/09/21 10:47:41;;;;;;;2.13;1.43;;;;;;;;;;5125938;27;20214;-40
2023/09/21 10:50:11;;;;;;;4.33;1.73;;;;;;;;;;5123854;27;20230;-42
2023/09/21 10:52:41;;;;;;;2.07;1.27;;;;;;;;;;5118332;27;20196;-43
2023/09/21 10:55:09;;;;;;;2.25;1.48;;;;;;;;;;5119718;27;20220;-42
2023/09/21 10:57:36;;;;;;;2.70;1.37;;;;;;;;;;5122280;27;20294;-45
2023/09/21 11:00:07;;;;;;;2.93;1.50;;;;;;;;;;5133731;27;20222;-42
2023/09/21 11:02:35;;;;;;;2.90;1.50;;;;;;;;;;5133694;27;20213;-41
2023/09/21 11:05:02;;;;;;;1.92;1.60;;;;;;;;;;5122413;27;20405;-42
2023/09/21 11:07:30;;;;;;;6.73;1.60;;;;;;;;;;5121323;27;20203;-43
2023/09/21 11:09:58;;;;;;;1.60;1.50;;;;;;;;;;5110637;27;20235;-45
2023/09/21 11:12:25;;;;;;;2.47;1.60;;;;;;;;;;5119714;27;20207;-44
2023/09/21 11:14:52;;;;;;;1.50;1.40;;;;;;;;;;5121786;27;20230;-43
2023/09/21 11:17:20;;;;;;;1.63;1.50;;;;;;;;;;5120812;27;20203;-41
2023/09/21 11:19:47;;;;;;;2.85;1.30;;;;;;;;;;5113740;27;20247;-42
2023/09/21 11:22:15;;;;;;;2.23;1.30;;;;;;;;;;5127620;27;20214;-43
2023/09/21 11:24:43;;;;;;;2.07;1.20;;;;;;;;;;5117235;27;20204;-42
2023/09/21 11:27:12;;;;;;;1.47;1.30;;;;;;;;;;5123330;27;20199;-45
2023/09/21 11:29:41;;;;;;;1.00;1.00;;;;;;;;;;5116587;27;20220;-40
2023/09/21 11:32:09;;;;;;;1.65;1.20;;;;;;;;;;5128732;27;20699;-42
2023/09/21 11:34:39;;;;;;;2.10;1.20;;;;;;;;;;5117555;27;20214;-43
2023/09/21 11:37:07;;;;;;;2.70;1.40;;;;;;;;;;5121641;27;20200;-41
2023/09/21 11:39:34;;;;;;;2.10;1.45;;;;;;;;;;5121647;27;20230;-41
2023/09/21 11:42:01;;;;;;;4.50;1.53;;;;;;;;;;5116753;27;20203;-42
2023/09/21 11:44:30;;;;;;;1.42;1.33;;;;;;;;;;5121341;27;20196;-44
2023/09/21 11:47:01;;;;;;;2.70;1.30;;;;;;;;;;5121637;27;20207;-41
2023/09/21 11:49:39;;;;;;;1.83;1.30;;;;;;;;;;5113231;27;20265;-43
2023/09/21 11:52:06;;;;;;;2.07;1.67;;;;;;;;;;5118894;27;20286;-44
2023/09/21 11:54:35;;;;;;;1.75;1.23;;;;;;;;;;5122374;27;20230;-43
2023/09/21 11:57:03;;;;;;;1.50;1.17;;;;;;;;;;5121021;27;20196;-43
2023/09/21 11:59:33;;;;;;;1.42;1.30;;;;;;;;;;5128821;27;20227;-44
2023/09/21 12:02:03;;;;;;;2.13;1.50;;;;;;;;;;5121107;27;20204;-43
2023/09/21 12:04:31;;;;;;;1.85;1.25;;;;;;;;;;5127558;27;20203;-46
2023/09/21 12:06:59;;;;;;;6.10;1.60;;;;;;;;;;5114125;27;20200;-42
2023/09/21 12:09:27;;;;;;;1.30;1.20;;;;;;;;;;5128516;27;20230;-39
2023/09/21 12:11:55;;;;;;;2.67;1.30;;;;;;;;;;5110074;27;20205;-41
2023/09/21 12:14:22;;;;;;;2.47;1.30;;;;;;;;;;5119888;27;20199;-41
2023/09/21 12:16:53;;;;;;;1.40;1.30;;;;;;;;;;5115989;27;20199;-42
2023/09/21 12:19:20;;;;;;;1.42;1.30;;;;;;;;;;5124117;27;20230;-41
2023/09/21 12:21:49;;;;;;;3.40;1.20;;;;;;;;;;5119668;27;20272;-42
2023/09/21 12:24:21;;;;;;;1.20;1.10;;;;;;;;;;5124144;27;20235;-40
2023/09/21 12:26:48;;;;;;;2.58;1.10;;;;;;;;;;5124141;27;20210;-40
2023/09/21 12:29:17;;;;;;;1.33;1.23;;;;;;;;;;5132825;27;20309;-39
2023/09/21 12:31:45;;;;;;;1.13;1.02;;;;;;;;;;5131049;27;20207;-42
2023/09/21 12:34:14;;;;;;;2.15;1.30;;;;;;;;;;5122592;27;20254;-43
2023/09/21 12:36:42;;;;;;;1.25;1.15;;;;;;;;;;5122654;27;20209;-42
2023/09/21 12:39:10;;;;;;;5.22;1.48;;;;;;;;;;5124880;27;20223;-43
2023/09/21 12:41:38;;;;;;;1.02;1.02;;;;;;;;;;5118934;27;20207;-42
2023/09/21 12:44:06;;;;;;;1.30;1.20;;;;;;;;;;5124841;27;20203;-42
2023/09/21 12:46:33;;;;;;;2.35;1.33;;;;;;;;;;5117204;27;20286;-42
2023/09/21 12:49:00;;;;;;;3.42;1.20;;;;;;;;;;5110758;27;20298;-41
2023/09/21 12:51:29;;;;;;;2.15;1.23;;;;;;;;;;5119425;27;20270;-42
2023/09/21 12:53:57;;;;;;;1.60;1.10;;;;;;;;;;5123800;27;20211;-43
2023/09/21 12:56:24;;;;;;;1.40;0.90;;;;;;;;;;5119522;27;20220;-40
2023/09/21 12:58:51;;;;;;;1.45;1.35;;;;;;;;;;5120410;27;20226;-39
2023/09/21 13:01:19;;;;;;;3.47;1.33;;;;;;;;;;5126348;27;20203;-42
2023/09/21 13:03:47;;;;;;;1.25;1.10;;;;;;;;;;5121547;27;20210;-41
2023/09/21 13:06:14;;;;;;;0.90;0.90;;;;;;;;;;5122264;27;20222;-44
2023/09/21 13:08:42;;;;;;;1.10;1.05;;;;;;;;;;5120477;27;20203;-41
2023/09/21 13:11:09;;;;;;;1.55;0.98;;;;;;;;;;5124768;27;20223;-43
2023/09/21 13:13:37;;;;;;;1.20;1.10;;;;;;;;;;5128135;27;20206;-45
2023/09/21 13:16:05;;;;;;;1.08;1.08;;;;;;;;;;5116549;27;20315;-42
2023/09/21 13:18:32;;;;;;;1.65;1.00;;;;;;;;;;5116033;27;20199;-41
2023/09/21 13:20:59;;;;;;;1.50;0.93;;;;;;;;;;5131722;27;20220;-45
2023/09/21 13:23:27;;;;;;;0.90;0.90;;;;;;;;;;5122837;27;20461;-40
2023/09/21 13:25:56;;;;;;;1.27;1.05;;;;;;;;;;5124475;27;20203;-42
2023/09/21 13:28:23;;;;;;;2.25;1.27;;;;;;;;;;5115960;27;20292;-42
2023/09/21 13:30:50;;;;;;;1.02;0.98;;;;;;;;;;5126007;27;20230;-45
2023/09/21 13:33:18;;;;;;;3.22;1.30;;;;;;;;;;5131296;27;20268;-44
2023/09/21 13:35:45;;;;;;;4.22;1.10;;;;;;;;;;5120333;27;20223;-40
2023/09/21 13:38:13;;;;;;;2.00;1.35;;;;;;;;;;5135410;27;20218;-36
2023/09/21 13:40:40;;;;;;;7.65;1.25;;;;;;;;;;5124461;27;20228;-43
2023/09/21 13:43:09;;;;;;;1.25;1.15;;;;;;;;;;5121475;27;20199;-44
2023/09/21 13:45:36;;;;;;;1.30;1.20;;;;;;;;;;5136393;27;20238;-44
2023/09/21 13:48:04;;;;;;;1.73;1.40;;;;;;;;;;5122915;27;20205;-40
2023/09/21 13:50:31;;;;;;;3.28;1.30;;;;;;;;;;5125847;27;20252;-40
2023/09/21 13:52:59;;;;;;;1.15;1.08;;;;;;;;;;5128386;27;20205;-43
2023/09/21 13:55:27;;;;;;;1.30;1.17;;;;;;;;;;5127696;27;20231;-42
2023/09/21 13:57:54;;;;;;;4.10;1.02;;;;;;;;;;5117973;27;20203;-42
2023/09/21 14:00:22;;;;;;;1.23;1.13;;;;;;;;;;5115824;27;20227;-39
2023/09/21 14:02:50;;;;;;;1.08;1.00;;;;;;;;;;5125640;27;20210;-41
2023/09/21 14:05:21;;;;;;;2.22;1.10;;;;;;;;;;5124127;27;20205;-42
2023/09/21 14:07:49;;;;;;;2.08;0.90;;;;;;;;;;5129855;27;20573;-39
2023/09/21 14:10:16;;;;;;;0.88;0.88;;;;;;;;;;5110999;27;20225;-37
2023/09/21 14:12:43;;;;;;;0.90;0.82;;;;;;;;;;5114908;27;20655;-44
2023/09/21 14:15:11;;;;;;;1.15;1.15;;;;;;;;;;5117475;27;20225;-41
2023/09/21 14:17:40;;;;;;;0.90;0.90;;;;;;;;;;5127958;27;20438;-41
2023/09/21 14:20:08;;;;;;;0.80;0.80;;;;;;;;;;5123144;27;20280;-40
2023/09/21 14:22:38;;;;;;;0.93;0.93;;;;;;;;;;5125473;27;20273;-44
2023/09/21 14:25:07;;;;;;;0.75;0.70;;;;;;;;;;5123550;27;20272;-43
2023/09/21 14:27:39;;;;;;;1.10;0.80;;;;;;;;;;5119140;27;20206;-45
2023/09/21 14:30:13;;;;;;;0.80;0.80;;;;;;;;;;5122001;27;20228;-42
2023/09/21 14:32:43;;;;;;;0.82;0.80;;;;;;;;;;5126809;27;20200;-44
2023/09/21 14:35:11;;;;;;;1.20;1.05;;;;;;;;;;5114041;27;20244;-41
2023/09/21 14:37:38;;;;;;;1.00;1.00;;;;;;;;;;5116483;27;20208;-44
2023/09/21 14:40:06;;;;;;;2.20;0.88;;;;;;;;;;5111178;27;20225;-43
2023/09/21 14:42:33;;;;;;;1.05;0.90;;;;;;;;;;5126264;27;20272;-43
2023/09/21 14:45:00;;;;;;;1.25;0.80;;;;;;;;;;5118177;27;20208;-40
2023/09/21 14:47:28;;;;;;;3.78;1.00;;;;;;;;;;5127284;27;20212;-41
2023/09/21 14:49:57;;;;;;;1.52;0.98;;;;;;;;;;5118811;27;20285;-42